createdAt,value
2023-11-28T00:01:09.575Z,28
2023-11-28T00:03:05.732Z,31
2023-11-28T00:05:06.699Z,33
2023-11-28T00:07:06.273Z,32
2023-11-28T00:09:13.168Z,35
2023-11-28T00:11:05.377Z,31
2023-11-28T00:13:06.769Z,31
2023-11-28T00:15:15.211Z,28
2023-11-28T00:17:05.678Z,27
2023-11-28T00:19:09.212Z,29
2023-11-28T00:21:10.623Z,26
2023-11-28T00:23:10.619Z,27
2023-11-28T00:25:13.905Z,28
2023-11-28T00:27:07.125Z,27
2023-11-28T00:29:06.089Z,29
2023-11-28T00:31:06.097Z,30
2023-11-28T00:33:07.187Z,29
2023-11-28T00:35:06.361Z,25
2023-11-28T00:37:06.333Z,25
2023-11-28T00:39:10.225Z,23
2023-11-28T00:41:08.563Z,22
2023-11-28T00:43:16.425Z,22
2023-11-28T00:49:08.829Z,22
2023-11-28T00:51:12.567Z,21
2023-11-28T00:53:16.615Z,20
2023-11-28T00:55:11.943Z,19
2023-11-28T00:57:09.088Z,17
2023-11-28T00:59:11.653Z,17
2023-11-28T01:01:11.573Z,17
2023-11-28T01:03:10.813Z,17
2023-11-28T01:05:13.737Z,16
2023-11-28T01:07:08.603Z,16
2023-11-28T01:09:07.676Z,18
2023-11-28T01:11:11.929Z,19
2023-11-28T01:13:08.775Z,22
2023-11-28T01:15:08.371Z,23
2023-11-28T01:17:08.205Z,22
2023-11-28T01:21:09.614Z,22
2023-11-28T01:23:16.109Z,21
2023-11-28T01:25:12.080Z,15
2023-11-28T01:27:09.582Z,13
2023-11-28T01:29:13.617Z,14
2023-11-28T01:31:12.190Z,15
2023-11-28T01:35:10.636Z,15
2023-11-28T01:37:10.678Z,14
2023-11-28T01:39:13.113Z,14
2023-11-28T01:41:09.125Z,14
2023-11-28T01:43:09.292Z,13
2023-11-28T01:47:18.459Z,13
2023-11-28T01:49:13.120Z,16
2023-11-28T01:51:11.277Z,15
2023-11-28T01:53:13.014Z,16
2023-11-28T01:55:12.030Z,15
2023-11-28T01:57:13.361Z,16
2023-11-28T02:03:13.108Z,14
2023-11-28T02:05:11.977Z,13
2023-11-28T02:07:10.165Z,10
2023-11-28T02:09:12.593Z,8
2023-11-28T02:13:12.971Z,8
2023-11-28T02:15:17.968Z,8
2023-11-28T02:17:14.968Z,8
2023-11-28T02:19:14.551Z,8
2023-11-28T02:21:19.803Z,7
2023-11-28T02:23:12.675Z,7
2023-11-28T02:27:10.949Z,8
2023-11-28T02:29:16.306Z,8
2023-11-28T02:31:19.776Z,8
2023-11-28T02:33:18.968Z,9
2023-11-28T02:35:20.740Z,12
2023-11-28T02:37:14.065Z,13
2023-11-28T02:39:11.447Z,14
2023-11-28T02:41:11.676Z,16
2023-11-28T02:43:16.689Z,17
2023-11-28T02:45:14.449Z,20
2023-11-28T02:49:16.318Z,20
2023-11-28T02:53:20.186Z,19
2023-11-28T02:55:12.211Z,18
2023-11-28T02:59:15.720Z,19
2023-11-28T03:01:15.739Z,18
2023-11-28T03:03:12.698Z,18
2023-11-28T03:05:12.663Z,17
2023-11-28T03:07:13.706Z,17
2023-11-28T03:09:18.366Z,16
2023-11-28T03:11:12.878Z,16
2023-11-28T03:13:12.981Z,16
2023-11-28T03:15:12.954Z,16
2023-11-28T03:17:15.320Z,16
2023-11-28T03:19:16.863Z,17
2023-11-28T03:21:13.230Z,16
2023-11-28T03:23:13.351Z,16
2023-11-28T03:25:13.360Z,16
2023-11-28T03:27:13.448Z,15
2023-11-28T03:29:14.781Z,14
2023-11-28T03:33:13.918Z,12
2023-11-28T03:35:19.219Z,9
2023-11-28T03:37:43.964Z,7
2023-11-28T03:41:44.204Z,6
2023-11-28T03:43:44.277Z,5
2023-11-28T03:45:44.398Z,6
2023-11-28T03:51:44.646Z,5
2023-11-28T03:53:44.871Z,5
2023-11-28T03:55:45.015Z,4
2023-11-28T03:57:44.997Z,4
2023-11-28T03:59:45.124Z,3
2023-11-28T04:01:45.319Z,3
2023-11-28T04:03:45.344Z,4
2023-11-28T04:05:45.981Z,4
2023-11-28T04:07:45.610Z,4
2023-11-28T04:09:45.705Z,4
2023-11-28T04:11:45.887Z,5
2023-11-28T04:13:45.979Z,4
2023-11-28T04:15:46.024Z,5
2023-11-28T04:17:46.155Z,5
2023-11-28T04:19:46.258Z,5
2023-11-28T04:21:46.335Z,5
2023-11-28T04:23:46.462Z,4
2023-11-28T04:25:46.565Z,4
2023-11-28T04:27:46.741Z,4
2023-11-28T04:29:46.981Z,5
2023-11-28T04:31:47.049Z,4
2023-11-28T04:33:47.148Z,4
2023-11-28T04:35:47.134Z,4
2023-11-28T04:37:47.270Z,4
2023-11-28T04:39:47.375Z,5
2023-11-28T04:41:52.433Z,5
2023-11-28T04:43:47.587Z,6
2023-11-28T04:45:47.693Z,6
2023-11-28T04:47:47.877Z,6
2023-11-28T04:49:47.936Z,6
2023-11-28T04:51:48.064Z,12
2023-11-28T04:53:48.173Z,16
2023-11-28T04:55:48.286Z,15
2023-11-28T04:57:48.342Z,11
2023-11-28T04:59:48.456Z,10
2023-11-28T05:01:48.756Z,10
2023-11-28T05:03:48.748Z,10
2023-11-28T05:05:48.793Z,10
2023-11-28T05:07:48.969Z,11
2023-11-28T05:09:49.062Z,10
2023-11-28T05:11:49.150Z,8
2023-11-28T05:13:49.337Z,9
2023-11-28T05:15:49.405Z,6
2023-11-28T05:17:49.783Z,6
2023-11-28T05:19:49.656Z,5
2023-11-28T05:21:49.729Z,7
2023-11-28T05:23:49.909Z,14
2023-11-28T05:25:50.179Z,14
2023-11-28T05:27:50.164Z,16
2023-11-28T05:29:50.399Z,9
2023-11-28T05:33:50.387Z,10
2023-11-28T05:35:50.502Z,8
2023-11-28T05:37:50.640Z,6
2023-11-28T05:39:50.814Z,7
2023-11-28T05:41:50.854Z,7
2023-11-28T05:43:51.071Z,6
2023-11-28T05:45:51.072Z,7
2023-11-28T05:47:51.219Z,7
2023-11-28T05:49:51.315Z,10
2023-11-28T05:51:51.376Z,7
2023-11-28T05:53:51.550Z,10
2023-11-28T05:55:51.621Z,11
2023-11-28T05:57:51.728Z,10
2023-11-28T05:59:51.812Z,8
2023-11-28T06:01:51.971Z,6
2023-11-28T06:03:52.067Z,7
2023-11-28T06:05:52.112Z,7
2023-11-28T06:07:52.447Z,9
2023-11-28T06:09:52.347Z,10
2023-11-28T06:11:52.482Z,10
2023-11-28T06:13:52.644Z,10
2023-11-28T06:15:52.730Z,11
2023-11-28T06:17:52.843Z,12
2023-11-28T06:19:52.957Z,10
2023-11-28T06:21:53.010Z,12
2023-11-28T06:25:53.269Z,11
2023-11-28T06:27:56.117Z,12
2023-11-28T06:29:53.439Z,13
2023-11-28T06:31:53.741Z,13
2023-11-28T06:33:53.664Z,13
2023-11-28T06:35:53.866Z,14
2023-11-28T06:37:54.404Z,14
2023-11-28T06:39:54.024Z,13
2023-11-28T06:41:54.164Z,15
2023-11-28T06:43:54.270Z,21
2023-11-28T06:45:54.368Z,29
2023-11-28T06:49:54.640Z,42
2023-11-28T06:52:01.983Z,31
2023-11-28T06:53:54.785Z,17
2023-11-28T06:55:54.961Z,36
2023-11-28T06:57:55.030Z,29
2023-11-28T06:59:55.164Z,25
2023-11-28T07:01:58.840Z,27
2023-11-28T07:03:55.380Z,26
2023-11-28T07:05:55.576Z,26
2023-11-28T07:07:55.616Z,24
2023-11-28T07:09:55.676Z,16
2023-11-28T07:11:55.773Z,21
2023-11-28T07:13:55.925Z,12
2023-11-28T07:15:56.063Z,12
2023-11-28T07:17:57.286Z,14
2023-11-28T07:20:01.256Z,15
2023-11-28T07:21:56.350Z,18
2023-11-28T07:23:56.541Z,19
2023-11-28T07:25:56.622Z,23
2023-11-28T07:28:03.053Z,29
2023-11-28T07:29:56.790Z,28
2023-11-28T07:31:56.905Z,24
2023-11-28T07:34:01.958Z,24
2023-11-28T07:35:57.119Z,20
2023-11-28T07:37:57.236Z,19
2023-11-28T07:40:04.577Z,23
2023-11-28T07:41:57.533Z,23
2023-11-28T07:43:57.579Z,25
2023-11-28T07:45:59.977Z,20
2023-11-28T07:48:04.841Z,20
2023-11-28T07:49:57.908Z,19
2023-11-28T07:51:57.950Z,18
2023-11-28T07:53:58.062Z,19
2023-11-28T07:55:58.234Z,17
2023-11-28T07:57:58.271Z,19
2023-11-28T07:59:58.388Z,17
2023-11-28T08:01:58.576Z,18
2023-11-28T08:03:58.714Z,19
2023-11-28T08:05:58.688Z,20
2023-11-28T08:07:59.160Z,22
2023-11-28T08:09:58.964Z,23
2023-11-28T08:11:59.003Z,25
2023-11-28T08:13:59.173Z,29
2023-11-28T08:15:59.440Z,32
2023-11-28T08:17:59.448Z,35
2023-11-28T08:19:59.465Z,35
2023-11-28T08:21:59.577Z,32
2023-11-28T08:24:02.287Z,32
2023-11-28T08:25:59.826Z,26
2023-11-28T08:27:59.881Z,28
2023-11-28T08:30:02.845Z,26
2023-11-28T08:32:00.400Z,24
2023-11-28T08:34:03.242Z,32
2023-11-28T08:36:00.389Z,38
2023-11-28T08:38:00.440Z,34
2023-11-28T08:40:00.567Z,30
2023-11-28T08:42:00.837Z,25
2023-11-28T08:44:03.339Z,27
2023-11-28T08:46:00.909Z,25
2023-11-28T08:48:00.950Z,26
2023-11-28T08:50:02.020Z,28
2023-11-28T08:52:02.837Z,31
2023-11-28T08:54:01.203Z,41
2023-11-28T08:56:01.330Z,50
2023-11-28T08:58:02.174Z,69
2023-11-28T09:00:01.535Z,74
2023-11-28T09:02:05.460Z,74
2023-11-28T09:04:02.076Z,74
2023-11-28T09:06:06.748Z,60
2023-11-28T09:08:02.360Z,48
2023-11-28T09:10:07.717Z,47
2023-11-28T09:12:05.567Z,38
2023-11-28T09:14:02.731Z,40
2023-11-28T09:16:02.752Z,39
2023-11-28T09:18:04.231Z,38
2023-11-28T09:20:07.542Z,44
2023-11-28T09:22:05.236Z,42
2023-11-28T09:24:11.560Z,43
2023-11-28T09:26:07.364Z,42
2023-11-28T09:28:05.560Z,39
2023-11-28T09:32:07.220Z,31
2023-11-28T09:34:06.731Z,12
2023-11-28T09:36:08.201Z,9
2023-11-28T09:38:10.620Z,8
2023-11-28T09:40:07.134Z,5
2023-11-28T09:42:05.842Z,5
2023-11-28T09:46:04.008Z,5
2023-11-28T09:48:05.719Z,11
2023-11-28T09:50:08.321Z,14
2023-11-28T09:52:05.426Z,17
2023-11-28T09:54:06.634Z,17
2023-11-28T09:56:07.856Z,16
2023-11-28T09:58:11.402Z,12
2023-11-28T10:00:07.155Z,8
2023-11-28T10:02:06.970Z,7
2023-11-28T10:04:11.064Z,6
2023-11-28T10:06:14.543Z,6
2023-11-28T10:08:06.629Z,6
2023-11-28T10:10:04.950Z,6
2023-11-28T10:12:05.628Z,8
2023-11-28T10:14:07.328Z,9
2023-11-28T10:16:09.258Z,7
2023-11-28T10:18:13.205Z,8
2023-11-28T10:20:06.104Z,6
2023-11-28T10:22:11.664Z,6
2023-11-28T10:24:06.274Z,14
2023-11-28T10:26:06.246Z,10
2023-11-28T10:28:06.859Z,10
2023-11-28T10:34:06.063Z,7
2023-11-28T10:36:06.862Z,7
2023-11-28T10:38:11.001Z,7
2023-11-28T10:40:09.202Z,6
2023-11-28T10:42:06.697Z,5
2023-11-28T10:48:13.400Z,5
2023-11-28T10:50:15.107Z,5
2023-11-28T10:54:12.804Z,5
2023-11-28T10:56:10.333Z,3
2023-11-28T10:58:09.679Z,4
2023-11-28T11:00:11.412Z,4
2023-11-28T11:02:07.423Z,4
2023-11-28T11:04:11.401Z,6
2023-11-28T11:06:13.705Z,7
2023-11-28T11:08:08.802Z,6
2023-11-28T11:12:10.303Z,6
2023-11-28T11:14:09.658Z,6
2023-11-28T11:16:08.033Z,5
2023-11-28T11:18:12.109Z,5
2023-11-28T11:20:09.769Z,5
2023-11-28T11:22:08.842Z,4
2023-11-28T11:24:08.302Z,4
2023-11-28T11:26:12.702Z,5
2023-11-28T11:28:11.299Z,7
2023-11-28T11:30:08.607Z,19
2023-11-28T11:32:08.554Z,13
2023-11-28T11:34:12.293Z,13
2023-11-28T11:38:09.601Z,12
2023-11-28T11:40:11.665Z,6
2023-11-28T11:42:15.375Z,5
2023-11-28T11:44:10.691Z,5
2023-11-28T11:46:12.799Z,5
2023-11-28T11:48:09.480Z,8
2023-11-28T11:50:19.582Z,6
2023-11-28T11:52:11.479Z,7
2023-11-28T11:54:13.347Z,9
2023-11-28T11:56:12.452Z,11
2023-11-28T11:58:14.831Z,11
2023-11-28T12:00:17.569Z,13
2023-11-28T12:02:09.903Z,12
2023-11-28T12:04:12.200Z,13
2023-11-28T12:06:17.433Z,13
2023-11-28T12:08:10.272Z,18
2023-11-28T12:10:14.916Z,10
2023-11-28T12:12:10.355Z,9
2023-11-28T12:16:10.632Z,15
2023-11-28T12:18:14.816Z,13
2023-11-28T12:20:16.377Z,12
2023-11-28T12:22:11.493Z,19
2023-11-28T12:24:10.872Z,12
2023-11-28T12:26:10.826Z,10
2023-11-28T12:28:12.131Z,8
2023-11-28T12:30:11.115Z,12
2023-11-28T12:32:16.148Z,10
2023-11-28T12:34:44.099Z,10
2023-11-28T12:36:41.428Z,12
2023-11-28T12:38:41.582Z,16
2023-11-28T12:40:41.626Z,12
2023-11-28T12:42:41.652Z,19
2023-11-28T12:44:41.756Z,14
2023-11-28T12:46:41.925Z,13
2023-11-28T12:50:42.281Z,50
2023-11-28T12:52:42.294Z,74
2023-11-28T12:54:42.367Z,37
2023-11-28T12:56:42.478Z,39
2023-11-28T12:58:42.605Z,45
2023-11-28T13:00:42.730Z,39
2023-11-28T13:02:43.038Z,48
2023-11-28T13:04:42.920Z,42
2023-11-28T13:06:53.866Z,38
2023-11-28T13:08:43.093Z,40
2023-11-28T13:10:43.227Z,36
2023-11-28T13:12:43.318Z,37
2023-11-28T13:14:43.536Z,32
2023-11-28T13:16:52.844Z,32
2023-11-28T13:18:43.708Z,31
2023-11-28T13:20:49.211Z,30
2023-11-28T13:22:43.855Z,30
2023-11-28T13:24:44.088Z,31
2023-11-28T13:26:44.098Z,30
2023-11-28T13:28:44.318Z,30
2023-11-28T13:30:44.347Z,29
2023-11-28T13:32:47.505Z,26
2023-11-28T13:34:49.648Z,22
2023-11-28T13:36:44.791Z,23
2023-11-28T13:38:44.900Z,22
2023-11-28T13:40:44.958Z,26
2023-11-28T13:42:44.984Z,22
2023-11-28T13:44:45.119Z,30
2023-11-28T13:46:45.294Z,52
2023-11-28T13:48:45.343Z,41
2023-11-28T13:50:45.435Z,43
2023-11-28T13:52:45.698Z,37
2023-11-28T13:54:45.743Z,55
2023-11-28T13:56:45.799Z,61
2023-11-28T13:58:45.927Z,84
2023-11-28T14:00:45.973Z,64
2023-11-28T14:02:46.404Z,64
2023-11-28T14:04:46.299Z,82
2023-11-28T14:06:46.279Z,75
2023-11-28T14:08:46.408Z,84
2023-11-28T14:10:46.529Z,79
2023-11-28T14:12:46.735Z,61
2023-11-28T14:14:54.226Z,55
2023-11-28T14:16:52.442Z,47
2023-11-28T14:18:47.010Z,50
2023-11-28T14:20:47.153Z,47
2023-11-28T14:22:47.155Z,51
2023-11-28T14:24:47.250Z,59
2023-11-28T14:26:47.380Z,59
2023-11-28T14:28:47.493Z,53
2023-11-28T14:30:47.643Z,41
2023-11-28T14:32:47.706Z,37
2023-11-28T14:34:47.921Z,27
2023-11-28T14:36:53.873Z,22
2023-11-28T14:38:48.045Z,20
2023-11-28T14:40:48.201Z,20
2023-11-28T14:42:48.234Z,18
2023-11-28T14:44:48.301Z,15
2023-11-28T14:46:48.771Z,25
2023-11-28T14:48:49.485Z,25
2023-11-28T14:50:48.650Z,29
2023-11-28T14:52:48.863Z,24
2023-11-28T14:54:48.791Z,27
2023-11-28T14:56:48.956Z,25
2023-11-28T14:58:49.067Z,19
2023-11-28T15:00:49.137Z,15
2023-11-28T15:02:51.076Z,14
2023-11-28T15:04:49.353Z,15
2023-11-28T15:06:49.478Z,22
2023-11-28T15:08:49.556Z,16
2023-11-28T15:10:49.682Z,17
2023-11-28T15:12:49.715Z,19
2023-11-28T15:14:49.804Z,19
2023-11-28T15:16:49.983Z,21
2023-11-28T15:42:50.777Z,31
2023-11-28T15:44:50.393Z,20
2023-11-28T15:46:52.581Z,23
2023-11-28T15:48:50.559Z,18
2023-11-28T15:50:50.781Z,21
2023-11-28T15:52:50.737Z,20
2023-11-28T15:54:51.550Z,10
2023-11-28T15:56:50.898Z,14
2023-11-28T15:58:51.029Z,16
2023-11-28T16:00:51.096Z,17
2023-11-28T16:02:52.196Z,16
2023-11-28T16:04:51.271Z,17
2023-11-28T16:06:51.386Z,29
2023-11-28T16:08:51.462Z,26
2023-11-28T16:10:51.666Z,16
2023-11-28T16:12:51.668Z,18
2023-11-28T16:14:51.790Z,25
2023-11-28T16:16:51.874Z,18
2023-11-28T16:18:52.229Z,19
2023-11-28T16:20:52.150Z,20
2023-11-28T16:22:52.325Z,18
2023-11-28T16:24:52.304Z,19
2023-11-28T16:26:52.425Z,16
2023-11-28T16:28:52.658Z,29
2023-11-28T16:30:52.582Z,30
2023-11-28T16:32:52.748Z,32
2023-11-28T16:34:52.876Z,42
2023-11-28T16:36:52.878Z,40
2023-11-28T16:38:52.922Z,36
2023-11-28T16:40:53.161Z,33
2023-11-28T16:44:53.340Z,26
2023-11-28T16:47:00.751Z,35
2023-11-28T16:48:57.750Z,36
2023-11-28T16:50:53.446Z,27
2023-11-28T16:52:53.578Z,24
2023-11-28T16:54:53.657Z,21
2023-11-28T16:56:53.723Z,24
2023-11-28T16:58:53.910Z,37
2023-11-28T17:00:54.024Z,54
2023-11-28T17:02:54.145Z,55
2023-11-28T17:04:54.161Z,59
2023-11-28T17:06:54.204Z,58
2023-11-28T17:08:54.285Z,54
2023-11-28T17:10:54.441Z,51
2023-11-28T17:12:54.496Z,43
2023-11-28T17:14:56.726Z,45
2023-11-28T17:16:59.020Z,52
2023-11-28T17:18:54.779Z,53
2023-11-28T17:20:54.894Z,51
2023-11-28T17:22:55.078Z,50
2023-11-28T17:24:58.948Z,51
2023-11-28T17:26:55.174Z,51
2023-11-28T17:28:55.253Z,49
2023-11-28T17:30:55.412Z,53
2023-11-28T17:32:55.451Z,55
2023-11-28T17:34:55.616Z,54
2023-11-28T17:36:55.580Z,61
2023-11-28T17:38:55.704Z,63
2023-11-28T17:40:55.825Z,79
2023-11-28T17:42:55.881Z,106
2023-11-28T17:44:55.974Z,93
2023-11-28T17:46:56.147Z,85
2023-11-28T17:48:56.176Z,72
2023-11-28T17:50:56.223Z,76
2023-11-28T17:52:56.314Z,66
2023-11-28T17:55:01.606Z,101
2023-11-28T17:56:56.471Z,56
2023-11-28T18:01:26.782Z,61
2023-11-28T18:03:26.943Z,69
2023-11-28T18:05:27.105Z,74
2023-11-28T18:07:27.194Z,72
2023-11-28T18:09:27.295Z,77
2023-11-28T18:11:27.366Z,71
2023-11-28T18:13:28.147Z,72
2023-11-28T18:15:33.331Z,68
2023-11-28T18:17:27.906Z,68
2023-11-28T18:19:31.898Z,67
2023-11-28T18:21:28.573Z,59
2023-11-28T18:23:28.002Z,70
2023-11-28T18:25:28.190Z,74
2023-11-28T18:27:28.189Z,58
2023-11-28T18:29:28.346Z,55
2023-11-28T18:31:28.699Z,42
2023-11-28T18:33:28.550Z,27
2023-11-28T18:35:28.828Z,27
2023-11-28T18:37:28.867Z,26
2023-11-28T18:39:28.892Z,23
2023-11-28T18:41:29.000Z,23
2023-11-28T18:43:29.227Z,24
2023-11-28T18:45:29.246Z,23
2023-11-28T18:47:29.424Z,23
2023-11-28T18:49:31.327Z,27
2023-11-28T18:51:29.545Z,39
2023-11-28T18:53:29.663Z,50
2023-11-28T18:55:32.993Z,53
2023-11-28T18:57:29.886Z,85
2023-11-28T18:59:32.410Z,92
2023-11-28T19:01:30.222Z,127
2023-11-28T19:03:30.307Z,124
2023-11-28T19:05:30.455Z,130
2023-11-28T19:07:30.473Z,102
2023-11-28T19:09:30.621Z,100
2023-11-28T19:11:30.674Z,94
2023-11-28T19:13:36.401Z,93
2023-11-28T19:15:30.955Z,92
2023-11-28T19:17:31.012Z,89
2023-11-28T19:19:31.062Z,70
2023-11-28T19:21:31.276Z,67
2023-11-28T19:23:31.420Z,59
2023-11-28T19:25:31.370Z,53
2023-11-28T19:27:31.489Z,54
2023-11-28T19:29:31.723Z,53
2023-11-28T19:33:43.539Z,59
2023-11-28T19:35:31.912Z,59
2023-11-28T19:37:31.998Z,56
2023-11-28T19:39:32.231Z,50
2023-11-28T19:41:32.196Z,50
2023-11-28T19:43:37.722Z,47
2023-11-28T19:45:39.614Z,42
2023-11-28T19:47:37.331Z,41
2023-11-28T19:49:38.171Z,43
2023-11-28T19:51:42.334Z,39
2023-11-28T19:53:36.824Z,36
2023-11-28T19:55:35.804Z,36
2023-11-28T19:57:33.029Z,37
2023-11-28T19:59:33.172Z,39
2023-11-28T20:01:33.312Z,39
2023-11-28T20:03:33.504Z,41
2023-11-28T20:05:33.473Z,39
2023-11-28T20:07:33.549Z,42
2023-11-28T20:09:33.756Z,41
2023-11-28T20:11:33.795Z,41
2023-11-28T20:13:34.030Z,36
2023-11-28T20:15:40.212Z,31
2023-11-28T20:17:34.285Z,25
2023-11-28T20:19:39.723Z,22
2023-11-28T20:21:34.378Z,19
2023-11-28T20:23:34.393Z,17
2023-11-28T20:25:34.438Z,25
2023-11-28T20:27:35.143Z,26
2023-11-28T20:29:36.463Z,21
2023-11-28T20:31:34.740Z,20
2023-11-28T20:33:34.848Z,17
2023-11-28T20:35:35.151Z,43
2023-11-28T20:37:35.997Z,47
2023-11-28T20:39:35.185Z,42
2023-11-28T20:41:35.324Z,56
2023-11-28T20:43:35.366Z,53
2023-11-28T20:45:35.535Z,47
2023-11-28T20:47:35.864Z,45
2023-11-28T20:49:35.701Z,42
2023-11-28T20:51:35.780Z,39
2023-11-28T20:53:35.928Z,37
2023-11-28T20:55:40.348Z,28
2023-11-28T20:57:36.102Z,24
2023-11-28T20:59:36.265Z,23
2023-11-28T21:01:36.395Z,19
2023-11-28T21:03:36.403Z,17
2023-11-28T21:05:36.580Z,16
2023-11-28T21:07:36.777Z,17
2023-11-28T21:09:36.711Z,23
2023-11-28T21:13:44.557Z,24
2023-11-28T21:21:38.717Z,39
2023-11-28T21:23:41.576Z,46
2023-11-28T21:25:38.158Z,36
2023-11-28T21:27:38.896Z,40
2023-11-28T21:29:37.839Z,16
2023-11-28T21:31:37.722Z,12
2023-11-28T21:33:37.928Z,11
2023-11-28T21:35:38.044Z,11
2023-11-28T21:37:38.045Z,11
2023-11-28T21:39:38.160Z,11
2023-11-28T21:41:38.432Z,11
2023-11-28T21:43:38.334Z,12
2023-11-28T21:45:38.532Z,13
2023-11-28T21:47:43.565Z,13
2023-11-28T21:49:38.638Z,10
2023-11-28T21:51:41.372Z,9
2023-11-28T21:53:38.990Z,10
2023-11-28T21:55:38.954Z,8
2023-11-28T21:57:39.045Z,10
2023-11-28T22:01:39.378Z,9
2023-11-28T22:03:39.346Z,10
2023-11-28T22:05:39.529Z,12
2023-11-28T22:07:39.642Z,14
2023-11-28T22:09:39.628Z,15
2023-11-28T22:11:39.734Z,17
2023-11-28T22:13:39.808Z,19
2023-11-28T22:15:41.800Z,18
2023-11-28T22:17:40.038Z,21
2023-11-28T22:19:40.126Z,23
2023-11-28T22:21:40.207Z,19
2023-11-28T22:23:40.344Z,19
2023-11-28T22:25:40.394Z,19
2023-11-28T22:27:40.528Z,21
2023-11-28T22:29:40.762Z,22
2023-11-28T22:31:47.205Z,22
2023-11-28T22:33:40.906Z,21
2023-11-28T22:35:40.933Z,19
2023-11-28T22:37:41.112Z,17
2023-11-28T22:39:41.089Z,18
2023-11-28T22:41:41.154Z,18
2023-11-28T22:43:41.262Z,18
2023-11-28T22:45:44.974Z,21
2023-11-28T22:47:41.552Z,25
2023-11-28T22:49:41.506Z,24
2023-11-28T22:51:41.629Z,23
2023-11-28T22:53:41.695Z,22
2023-11-28T22:55:41.801Z,19
2023-11-28T22:57:41.866Z,20
2023-11-28T22:59:42.058Z,21
2023-11-28T23:01:42.139Z,24
2023-11-28T23:03:42.167Z,24
2023-11-28T23:05:42.342Z,26
2023-11-28T23:07:42.368Z,25
2023-11-28T23:09:42.398Z,24
2023-11-28T23:13:42.707Z,19
2023-11-28T23:15:42.683Z,15
2023-11-28T23:17:42.881Z,13
2023-11-28T23:19:42.881Z,13
2023-11-28T23:21:43.062Z,12
2023-11-28T23:23:43.055Z,12
2023-11-28T23:25:43.124Z,12
2023-11-28T23:27:43.337Z,11
2023-11-28T23:29:43.385Z,11
2023-11-28T23:31:43.444Z,11
2023-11-28T23:33:43.529Z,15
2023-11-28T23:35:44.849Z,29
2023-11-28T23:37:48.272Z,26
2023-11-28T23:39:43.852Z,21
2023-11-28T23:41:43.983Z,19
2023-11-28T23:43:44.062Z,16
2023-11-28T23:45:44.037Z,10
2023-11-28T23:49:44.179Z,11
2023-11-28T23:51:44.358Z,11
2023-11-28T23:53:44.410Z,11
2023-11-28T23:55:44.576Z,11
2023-11-28T23:57:44.527Z,11
2023-11-28T23:59:44.668Z,10
